sensor_id;sensor_type;location;lat;lon;timestamp;pressure;altitude;pressure_sealevel;temperature;humidity
58955;BME280;45815;52.334;5.024;2023-04-01T00:01:57;99063.78;;;9.83;100.00
58955;BME280;45815;52.334;5.024;2023-04-01T00:04:22;99069.03;;;9.83;100.00
58955;BME280;45815;52.334;5.024;2023-04-01T00:06:48;99073.38;;;9.80;100.00
58955;BME280;45815;52.334;5.024;2023-04-01T00:09:14;99071.66;;;9.76;100.00
58955;BME280;45815;52.334;5.024;2023-04-01T00:11:40;99062.13;;;9.67;100.00
58955;BME280;45815;52.334;5.024;2023-04-01T00:14:06;99077.78;;;9.73;100.00
58955;BME280;45815;52.334;5.024;2023-04-01T00:16:32;99066.47;;;9.66;100.00
58955;BME280;45815;52.334;5.024;2023-04-01T00:18:58;99070.81;;;9.75;100.00
58955;BME280;45815;52.334;5.024;2023-04-01T00:21:23;99084.75;;;9.76;100.00
58955;BME280;45815;52.334;5.024;2023-04-01T00:23:50;99088.28;;;9.75;100.00
58955;BME280;45815;52.334;5.024;2023-04-01T00:26:16;99083.09;;;9.67;100.00
58955;BME280;45815;52.334;5.024;2023-04-01T00:28:44;99083.91;;;9.69;100.00
58955;BME280;45815;52.334;5.024;2023-04-01T00:31:10;99085.69;;;9.68;100.00
58955;BME280;45815;52.334;5.024;2023-04-01T00:33:37;99077.00;;;9.59;100.00
58955;BME280;45815;52.334;5.024;2023-04-01T00:36:13;99086.59;;;9.60;100.00
58955;BME280;45815;52.334;5.024;2023-04-01T00:38:39;99081.38;;;9.57;100.00
58955;BME280;45815;52.334;5.024;2023-04-01T00:41:07;99063.97;;;9.46;100.00
58955;BME280;45815;52.334;5.024;2023-04-01T00:43:33;99078.75;;;9.58;100.00
58955;BME280;45815;52.334;5.024;2023-04-01T00:45:59;99079.59;;;9.62;100.00
58955;BME280;45815;52.334;5.024;2023-04-01T00:48:29;99083.13;;;9.61;100.00
58955;BME280;45815;52.334;5.024;2023-04-01T00:51:07;99090.97;;;9.59;100.00
58955;BME280;45815;52.334;5.024;2023-04-01T00:53:37;99086.59;;;9.60;100.00
58955;BME280;45815;52.334;5.024;2023-04-01T00:58:35;99086.59;;;9.60;100.00
58955;BME280;45815;52.334;5.024;2023-04-01T01:01:02;99095.31;;;9.62;100.00
58955;BME280;45815;52.334;5.024;2023-04-01T01:03:28;99090.09;;;9.57;100.00
58955;BME280;45815;52.334;5.024;2023-04-01T01:11:54;99091.00;;;9.55;100.00
58955;BME280;45815;52.334;5.024;2023-04-01T01:14:34;99090.16;;;9.48;100.00
58955;BME280;45815;52.334;5.024;2023-04-01T01:17:55;99087.56;;;9.45;100.00
58955;BME280;45815;52.334;5.024;2023-04-01T01:20:03;99090.19;;;9.40;100.00
58955;BME280;45815;52.334;5.024;2023-04-01T01:23:03;99099.81;;;9.37;100.00
58955;BME280;45815;52.334;5.024;2023-04-01T01:28:40;99102.41;;;9.41;100.00
58955;BME280;45815;52.334;5.024;2023-04-01T01:34:15;99104.13;;;9.45;100.00
58955;BME280;45815;52.334;5.024;2023-04-01T01:36:48;99105.00;;;9.47;100.00
58955;BME280;45815;52.334;5.024;2023-04-01T01:39:17;99109.44;;;9.35;100.00
58955;BME280;45815;52.334;5.024;2023-04-01T01:41:46;99114.59;;;9.48;100.00
58955;BME280;45815;52.334;5.024;2023-04-01T01:44:16;99113.72;;;9.51;100.00
58955;BME280;45815;52.334;5.024;2023-04-01T01:46:43;99108.50;;;9.46;100.00
58955;BME280;45815;52.334;5.024;2023-04-01T01:49:11;99119.81;;;9.55;100.00
58955;BME280;45815;52.334;5.024;2023-04-01T01:51:38;99122.41;;;9.55;100.00
58955;BME280;45815;52.334;5.024;2023-04-01T01:54:06;99126.78;;;9.52;100.00
58955;BME280;45815;52.334;5.024;2023-04-01T01:56:32;99125.91;;;9.57;100.00
58955;BME280;45815;52.334;5.024;2023-04-01T01:59:06;99118.97;;;9.51;100.00
58955;BME280;45815;52.334;5.024;2023-04-01T02:01:37;99125.91;;;9.55;100.00
58955;BME280;45815;52.334;5.024;2023-04-01T02:04:10;99128.59;;;9.41;100.00
58955;BME280;45815;52.334;5.024;2023-04-01T02:06:41;99139.94;;;9.39;100.00
58955;BME280;45815;52.334;5.024;2023-04-01T02:09:10;99139.09;;;9.41;100.00
58955;BME280;45815;52.334;5.024;2023-04-01T02:11:45;99147.78;;;9.46;100.00
58955;BME280;45815;52.334;5.024;2023-04-01T02:14:18;99151.28;;;9.47;100.00
58955;BME280;45815;52.334;5.024;2023-04-01T02:17:21;99161.75;;;9.42;100.00
58955;BME280;45815;52.334;5.024;2023-04-01T02:19:53;99160.00;;;9.50;100.00
58955;BME280;45815;52.334;5.024;2023-04-01T02:22:29;99158.22;;;9.52;100.00
58955;BME280;45815;52.334;5.024;2023-04-01T02:25:00;99167.84;;;9.54;100.00
58955;BME280;45815;52.334;5.024;2023-04-01T02:27:26;99177.47;;;9.48;100.00
58955;BME280;45815;52.334;5.024;2023-04-01T02:29:52;99179.16;;;9.52;100.00
58955;BME280;45815;52.334;5.024;2023-04-01T02:32:19;99176.53;;;9.59;100.00
58955;BME280;45815;52.334;5.024;2023-04-01T02:34:46;99182.66;;;9.61;100.00
58955;BME280;45815;52.334;5.024;2023-04-01T02:37:13;99180.00;;;9.64;100.00
58955;BME280;45815;52.334;5.024;2023-04-01T02:39:38;99178.28;;;9.61;100.00
58955;BME280;45815;52.334;5.024;2023-04-01T02:42:04;99184.38;;;9.65;100.00
58955;BME280;45815;52.334;5.024;2023-04-01T02:44:30;99193.97;;;9.66;100.00
58955;BME280;45815;52.334;5.024;2023-04-01T02:46:57;99192.22;;;9.68;100.00
58955;BME280;45815;52.334;5.024;2023-04-01T02:49:22;99192.22;;;9.66;100.00
58955;BME280;45815;52.334;5.024;2023-04-01T02:51:47;99200.06;;;9.71;100.00
58955;BME280;45815;52.334;5.024;2023-04-01T02:54:13;99187.88;;;9.64;100.00
58955;BME280;45815;52.334;5.024;2023-04-01T02:56:39;99207.06;;;9.69;100.00
58955;BME280;45815;52.334;5.024;2023-04-01T02:59:04;99214.06;;;9.70;100.00
58955;BME280;45815;52.334;5.024;2023-04-01T03:01:30;99208.81;;;9.70;100.00
58955;BME280;45815;52.334;5.024;2023-04-01T03:03:55;99203.56;;;9.70;100.00
58955;BME280;45815;52.334;5.024;2023-04-01T03:06:21;99216.69;;;9.67;100.00
58955;BME280;45815;52.334;5.024;2023-04-01T03:08:46;99217.53;;;9.69;100.00
58955;BME280;45815;52.334;5.024;2023-04-01T03:11:12;99208.84;;;9.59;100.00
58955;BME280;45815;52.334;5.024;2023-04-01T03:13:38;99229.75;;;9.75;100.00
58955;BME280;45815;52.334;5.024;2023-04-01T03:16:04;99237.56;;;9.81;100.00
58955;BME280;45815;52.334;5.024;2023-04-01T03:18:30;99242.84;;;9.76;100.00
58955;BME280;45815;52.334;5.024;2023-04-01T03:20:56;99246.31;;;9.78;100.00
58955;BME280;45815;52.334;5.024;2023-04-01T03:23:22;99245.44;;;9.82;100.00
58955;BME280;45815;52.334;5.024;2023-04-01T03:25:49;99255.03;;;9.86;100.00
58955;BME280;45815;52.334;5.024;2023-04-01T03:28:14;99254.16;;;9.87;100.00
58955;BME280;45815;52.334;5.024;2023-04-01T03:30:40;99264.66;;;9.90;100.00
58955;BME280;45815;52.334;5.024;2023-04-01T03:33:06;99264.66;;;9.90;100.00
58955;BME280;45815;52.334;5.024;2023-04-01T03:35:31;99272.47;;;9.92;100.00
58955;BME280;45815;52.334;5.024;2023-04-01T03:37:57;99269.84;;;9.97;100.00
58955;BME280;45815;52.334;5.024;2023-04-01T03:40:23;99275.09;;;10.00;100.00
58955;BME280;45815;52.334;5.024;2023-04-01T03:42:49;99284.69;;;10.02;100.00
58955;BME280;45815;52.334;5.024;2023-04-01T03:45:15;99284.72;;;9.96;100.00
58955;BME280;45815;52.334;5.024;2023-04-01T03:47:40;99285.59;;;9.93;100.00
58955;BME280;45815;52.334;5.024;2023-04-01T03:50:07;99275.97;;;9.96;100.00
58955;BME280;45815;52.334;5.024;2023-04-01T03:52:33;99283.84;;;9.96;100.00
58955;BME280;45815;52.334;5.024;2023-04-01T03:54:59;99297.78;;;9.99;100.00
58955;BME280;45815;52.334;5.024;2023-04-01T03:57:24;99307.41;;;9.97;100.00
58955;BME280;45815;52.334;5.024;2023-04-01T03:59:50;99310.06;;;9.96;100.00
58955;BME280;45815;52.334;5.024;2023-04-01T04:02:16;99308.31;;;9.91;100.00
58955;BME280;45815;52.334;5.024;2023-04-01T04:04:41;99317.91;;;9.88;100.00
58955;BME280;45815;52.334;5.024;2023-04-01T04:07:07;99323.16;;;9.94;100.00
58955;BME280;45815;52.334;5.024;2023-04-01T04:09:53;99330.16;;;9.95;100.00
58955;BME280;45815;52.334;5.024;2023-04-01T04:12:18;99314.44;;;9.90;100.00
58955;BME280;45815;52.334;5.024;2023-04-01T04:14:43;99337.13;;;9.96;100.00
58955;BME280;45815;52.334;5.024;2023-04-01T04:17:10;99331.03;;;9.96;100.00
58955;BME280;45815;52.334;5.024;2023-04-01T04:19:41;99346.72;;;9.99;100.00
58955;BME280;45815;52.334;5.024;2023-04-01T04:22:07;99348.50;;;10.00;100.00
58955;BME280;45815;52.334;5.024;2023-04-01T04:24:36;99351.09;;;9.98;100.00
58955;BME280;45815;52.334;5.024;2023-04-01T04:27:08;99346.75;;;9.96;100.00
58955;BME280;45815;52.334;5.024;2023-04-01T04:29:40;99359.00;;;9.80;100.00
58955;BME280;45815;52.334;5.024;2023-04-01T04:32:05;99365.97;;;9.82;100.00
58955;BME280;45815;52.334;5.024;2023-04-01T04:34:31;99366.00;;;9.84;100.00
58955;BME280;45815;52.334;5.024;2023-04-01T04:36:56;99370.38;;;9.83;100.00
58955;BME280;45815;52.334;5.024;2023-04-01T04:39:26;99383.47;;;9.86;100.00
58955;BME280;45815;52.334;5.024;2023-04-01T04:41:52;99371.22;;;9.85;100.00
58955;BME280;45815;52.334;5.024;2023-04-01T04:44:17;99379.09;;;9.87;100.00
58955;BME280;45815;52.334;5.024;2023-04-01T04:46:43;99386.06;;;9.89;100.00
58955;BME280;45815;52.334;5.024;2023-04-01T04:49:12;99371.25;;;9.79;100.00
58955;BME280;45815;52.334;5.024;2023-04-01T04:51:38;99392.19;;;9.88;100.00
58955;BME280;45815;52.334;5.024;2023-04-01T04:54:04;99391.34;;;9.83;100.00
58955;BME280;45815;52.334;5.024;2023-04-01T04:57:02;99405.28;;;9.87;100.00
58955;BME280;45815;52.334;5.024;2023-04-01T04:59:32;99407.03;;;9.85;100.00
58955;BME280;45815;52.334;5.024;2023-04-01T05:02:03;99407.06;;;9.83;100.00
58955;BME280;45815;52.334;5.024;2023-04-01T05:04:28;99414.91;;;9.86;100.00
58955;BME280;45815;52.334;5.024;2023-04-01T05:06:54;99422.75;;;9.86;100.00
58955;BME280;45815;52.334;5.024;2023-04-01T05:09:19;99424.50;;;9.87;100.00
58955;BME280;45815;52.334;5.024;2023-04-01T05:11:45;99426.28;;;9.84;100.00
58955;BME280;45815;52.334;5.024;2023-04-01T05:14:16;99414.91;;;9.77;100.00
58955;BME280;45815;52.334;5.024;2023-04-01T05:16:48;99435.00;;;9.86;100.00
58955;BME280;45815;52.334;5.024;2023-04-01T05:19:14;99428.00;;;9.76;100.00
58955;BME280;45815;52.334;5.024;2023-04-01T05:21:40;99441.09;;;9.88;100.00
58955;BME280;45815;52.334;5.024;2023-04-01T05:24:08;99446.34;;;9.89;100.00
58955;BME280;45815;52.334;5.024;2023-04-01T05:26:34;99440.22;;;9.89;100.00
58955;BME280;45815;52.334;5.024;2023-04-01T05:29:00;99453.34;;;9.84;100.00
58955;BME280;45815;52.334;5.024;2023-04-01T05:31:25;99448.09;;;9.81;100.00
58955;BME280;45815;52.334;5.024;2023-04-01T05:33:51;99451.59;;;9.80;100.00
58955;BME280;45815;52.334;5.024;2023-04-01T05:36:16;99450.72;;;9.73;100.00
58955;BME280;45815;52.334;5.024;2023-04-01T05:38:42;99468.19;;;9.88;100.00
58955;BME280;45815;52.334;5.024;2023-04-01T05:41:11;99464.69;;;9.89;100.00
58955;BME280;45815;52.334;5.024;2023-04-01T05:43:41;99470.78;;;9.90;100.00
58955;BME280;45815;52.334;5.024;2023-04-01T05:46:33;99471.66;;;9.87;100.00
58955;BME280;45815;52.334;5.024;2023-04-01T05:49:08;99477.81;;;9.86;100.00
58955;BME280;45815;52.334;5.024;2023-04-01T05:51:33;99493.50;;;9.88;100.00
58955;BME280;45815;52.334;5.024;2023-04-01T05:53:59;99494.41;;;9.88;100.00
58955;BME280;45815;52.334;5.024;2023-04-01T05:56:25;99494.38;;;9.85;100.00
58955;BME280;45815;52.334;5.024;2023-04-01T05:58:52;99503.13;;;9.81;100.00
58955;BME280;45815;52.334;5.024;2023-04-01T06:01:19;99505.75;;;9.84;100.00
58955;BME280;45815;52.334;5.024;2023-04-01T06:03:45;99511.84;;;9.85;100.00
58955;BME280;45815;52.334;5.024;2023-04-01T06:06:25;99514.50;;;9.83;100.00
58955;BME280;45815;52.334;5.024;2023-04-01T06:08:53;99511.84;;;9.85;100.00
58955;BME280;45815;52.334;5.024;2023-04-01T06:11:38;99511.00;;;9.81;100.00
58955;BME280;45815;52.334;5.024;2023-04-01T06:14:16;99520.59;;;9.84;100.00
58955;BME280;45815;52.334;5.024;2023-04-01T06:22:54;99536.34;;;9.84;100.00
58955;BME280;45815;52.334;5.024;2023-04-01T06:31:05;99546.81;;;9.88;100.00
58955;BME280;45815;52.334;5.024;2023-04-01T06:33:46;99545.94;;;9.89;100.00
58955;BME280;45815;52.334;5.024;2023-04-01T06:39:40;99564.28;;;9.82;100.00
58955;BME280;45815;52.334;5.024;2023-04-01T06:48:52;99589.63;;;9.81;100.00
58955;BME280;45815;52.334;5.024;2023-04-01T06:52:05;99593.97;;;9.78;100.00
58955;BME280;45815;52.334;5.024;2023-04-01T06:57:58;99601.84;;;9.85;100.00
58955;BME280;45815;52.334;5.024;2023-04-01T07:00:31;99598.34;;;9.86;100.00
58955;BME280;45815;52.334;5.024;2023-04-01T07:03:10;99603.59;;;9.92;100.00
58955;BME280;45815;52.334;5.024;2023-04-01T07:05:42;99592.25;;;9.90;100.00
58955;BME280;45815;52.334;5.024;2023-04-01T07:08:15;99614.09;;;10.02;100.00
58955;BME280;45815;52.334;5.024;2023-04-01T07:11:05;99616.72;;;10.02;100.00
58955;BME280;45815;52.334;5.024;2023-04-01T07:13:58;99607.09;;;9.88;100.00
58955;BME280;45815;52.334;5.024;2023-04-01T07:16:37;99622.84;;;9.98;100.00
58955;BME280;45815;52.334;5.024;2023-04-01T07:19:26;99623.72;;;9.90;100.00
58955;BME280;45815;52.334;5.024;2023-04-01T07:22:04;99635.94;;;9.98;100.00
58955;BME280;45815;52.334;5.024;2023-04-01T07:25:16;99634.19;;;9.93;100.00
58955;BME280;45815;52.334;5.024;2023-04-01T07:27:47;99646.41;;;9.94;100.00
58955;BME280;45815;52.334;5.024;2023-04-01T07:30:21;99643.78;;;9.91;100.00
58955;BME280;45815;52.334;5.024;2023-04-01T07:35:27;99656.91;;;9.91;100.00
58955;BME280;45815;52.334;5.024;2023-04-01T07:40:55;99656.94;;;9.98;100.00
58955;BME280;45815;52.334;5.024;2023-04-01T07:46:52;99665.66;;;10.04;100.00
58955;BME280;45815;52.334;5.024;2023-04-01T07:49:52;99681.38;;;10.09;100.00
58955;BME280;45815;52.334;5.024;2023-04-01T08:01:28;99684.06;;;10.24;100.00
58955;BME280;45815;52.334;5.024;2023-04-01T08:06:53;99692.88;;;10.32;100.00
58955;BME280;45815;52.334;5.024;2023-04-01T08:09:48;99697.16;;;10.27;100.00
58955;BME280;45815;52.334;5.024;2023-04-01T08:13:08;99704.16;;;10.22;100.00
58955;BME280;45815;52.334;5.024;2023-04-01T08:16:22;99711.16;;;10.25;100.00
58955;BME280;45815;52.334;5.024;2023-04-01T08:21:47;99720.84;;;10.33;100.00
58955;BME280;45815;52.334;5.024;2023-04-01T08:24:26;99723.47;;;10.40;100.00
58955;BME280;45815;52.334;5.024;2023-04-01T08:26:58;99712.13;;;10.47;100.00
58955;BME280;45815;52.334;5.024;2023-04-01T08:29:34;99724.34;;;10.49;100.00
58955;BME280;45815;52.334;5.024;2023-04-01T08:32:14;99733.97;;;10.50;100.00
58955;BME280;45815;52.334;5.024;2023-04-01T08:34:45;99730.50;;;10.59;100.00
58955;BME280;45815;52.334;5.024;2023-04-01T08:37:25;99737.47;;;10.62;100.00
58955;BME280;45815;52.334;5.024;2023-04-01T08:40:37;99738.38;;;10.61;100.00
58955;BME280;45815;52.334;5.024;2023-04-01T08:54:46;99754.09;;;10.50;100.00
58955;BME280;45815;52.334;5.024;2023-04-01T08:57:20;99762.84;;;10.61;100.00
58955;BME280;45815;52.334;5.024;2023-04-01T09:03:22;99770.75;;;10.75;100.00
58955;BME280;45815;52.334;5.024;2023-04-01T09:11:51;99775.09;;;10.84;100.00
58955;BME280;45815;52.334;5.024;2023-04-01T09:23:09;99784.75;;;10.91;100.00
58955;BME280;45815;52.334;5.024;2023-04-01T09:46:08;99810.16;;;11.23;100.00
58955;BME280;45815;52.334;5.024;2023-04-01T09:48:49;99822.41;;;11.30;100.00
58955;BME280;45815;52.334;5.024;2023-04-01T09:51:26;99818.91;;;11.31;100.00
58955;BME280;45815;52.334;5.024;2023-04-01T10:10:59;99846.03;;;11.20;100.00
58955;BME280;45815;52.334;5.024;2023-04-01T10:13:47;99844.28;;;11.23;100.00
58955;BME280;45815;52.334;5.024;2023-04-01T10:16:43;99852.16;;;11.23;100.00
58955;BME280;45815;52.334;5.024;2023-04-01T10:19:40;99860.06;;;11.33;100.00
58955;BME280;45815;52.334;5.024;2023-04-01T10:22:55;99850.44;;;11.31;100.00
58955;BME280;45815;52.334;5.024;2023-04-01T10:25:57;99858.28;;;11.40;100.00
58955;BME280;45815;52.334;5.024;2023-04-01T10:36:54;99865.31;;;11.55;100.00
58955;BME280;45815;52.334;5.024;2023-04-01T10:46:08;99862.66;;;11.58;100.00
58955;BME280;45815;52.334;5.024;2023-04-01T11:18:00;99900.38;;;11.88;100.00
58955;BME280;45815;52.334;5.024;2023-04-01T11:20:45;99901.22;;;11.88;100.00
58955;BME280;45815;52.334;5.024;2023-04-01T11:32:57;99911.75;;;11.97;100.00
58955;BME280;45815;52.334;5.024;2023-04-01T11:41:26;99938.91;;;11.93;100.00
58955;BME280;45815;52.334;5.024;2023-04-01T11:44:29;99938.03;;;12.00;100.00
58955;BME280;45815;52.334;5.024;2023-04-01T11:47:45;99940.66;;;12.02;100.00
58955;BME280;45815;52.334;5.024;2023-04-01T11:57:13;99949.41;;;12.27;100.00
58955;BME280;45815;52.334;5.024;2023-04-01T12:05:00;99960.75;;;12.46;100.00
58955;BME280;45815;52.334;5.024;2023-04-01T12:07:53;99965.09;;;12.58;100.00
58955;BME280;45815;52.334;5.024;2023-04-01T12:18:38;99969.47;;;12.65;100.00
58955;BME280;45815;52.334;5.024;2023-04-01T12:23:55;99987.94;;;12.51;100.00
58955;BME280;45815;52.334;5.024;2023-04-01T12:29:37;100002.88;;;12.26;100.00
58955;BME280;45815;52.334;5.024;2023-04-01T12:37:45;100011.66;;;12.22;100.00
58955;BME280;45815;52.334;5.024;2023-04-01T12:40:37;100014.28;;;12.33;100.00
58955;BME280;45815;52.334;5.024;2023-04-01T12:45:36;100024.78;;;12.36;100.00
58955;BME280;45815;52.334;5.024;2023-04-01T12:48:27;100014.25;;;12.36;100.00
58955;BME280;45815;52.334;5.024;2023-04-01T12:51:10;100025.63;;;12.55;100.00
58955;BME280;45815;52.334;5.024;2023-04-01T13:05:13;100041.50;;;11.92;100.00
58955;BME280;45815;52.334;5.024;2023-04-01T13:07:43;100052.84;;;11.94;100.00
58955;BME280;45815;52.334;5.024;2023-04-01T13:10:44;100048.50;;;11.88;100.00
58955;BME280;45815;52.334;5.024;2023-04-01T13:15:58;100062.44;;;11.75;100.00
58955;BME280;45815;52.334;5.024;2023-04-01T13:26:22;100086.09;;;11.62;100.00
58955;BME280;45815;52.334;5.024;2023-04-01T13:29:31;100083.44;;;11.50;100.00
58955;BME280;45815;52.334;5.024;2023-04-01T13:35:03;100095.63;;;11.37;100.00
58955;BME280;45815;52.334;5.024;2023-04-01T13:37:41;100104.44;;;11.41;100.00
58955;BME280;45815;52.334;5.024;2023-04-01T13:43:01;100104.38;;;11.30;100.00
58955;BME280;45815;52.334;5.024;2023-04-01T13:45:38;100112.25;;;11.27;100.00
58955;BME280;45815;52.334;5.024;2023-04-01T13:51:13;100122.72;;;11.18;100.00
58955;BME280;45815;52.334;5.024;2023-04-01T13:54:05;100128.72;;;10.97;100.00
58955;BME280;45815;52.334;5.024;2023-04-01T13:56:56;100127.88;;;11.07;100.00
58955;BME280;45815;52.334;5.024;2023-04-01T14:04:50;100142.78;;;11.08;100.00
58955;BME280;45815;52.334;5.024;2023-04-01T14:07:36;100151.53;;;11.07;100.00
58955;BME280;45815;52.334;5.024;2023-04-01T14:10:18;100155.03;;;11.06;100.00
58955;BME280;45815;52.334;5.024;2023-04-01T14:18:33;100159.28;;;10.87;100.00
58955;BME280;45815;52.334;5.024;2023-04-01T14:32:27;100184.81;;;11.05;100.00
58955;BME280;45815;52.334;5.024;2023-04-01T14:38:16;100198.78;;;10.98;100.00
58955;BME280;45815;52.334;5.024;2023-04-01T14:46:09;100210.16;;;11.02;100.00
58955;BME280;45815;52.334;5.024;2023-04-01T14:49:02;100217.03;;;10.86;100.00
58955;BME280;45815;52.334;5.024;2023-04-01T14:51:33;100226.72;;;10.93;100.00
58955;BME280;45815;52.334;5.024;2023-04-01T14:54:00;100226.78;;;10.99;100.00
58955;BME280;45815;52.334;5.024;2023-04-01T14:56:44;100230.25;;;10.96;100.00
58955;BME280;45815;52.334;5.024;2023-04-01T15:04:46;100225.88;;;10.97;100.00
58955;BME280;45815;52.334;5.024;2023-04-01T15:10:25;100252.22;;;11.09;100.00
58955;BME280;45815;52.334;5.024;2023-04-01T15:19:00;100265.38;;;11.14;100.00
58955;BME280;45815;52.334;5.024;2023-04-01T15:24:22;100263.56;;;11.02;100.00
58955;BME280;45815;52.334;5.024;2023-04-01T15:38:11;100305.63;;;11.05;100.00
58955;BME280;45815;52.334;5.024;2023-04-01T15:40:52;100302.06;;;11.02;100.00
58955;BME280;45815;52.334;5.024;2023-04-01T15:43:52;100307.16;;;10.82;100.00
58955;BME280;45815;52.334;5.024;2023-04-01T15:46:48;100314.13;;;10.80;100.00
58955;BME280;45815;52.334;5.024;2023-04-01T15:49:35;100314.16;;;10.83;100.00
58955;BME280;45815;52.334;5.024;2023-04-01T15:52:07;100325.56;;;10.88;100.00
58955;BME280;45815;52.334;5.024;2023-04-01T16:00:49;100333.41;;;10.83;100.00
58955;BME280;45815;52.334;5.024;2023-04-01T16:03:40;100346.53;;;10.82;100.00
58955;BME280;45815;52.334;5.024;2023-04-01T16:06:37;100338.50;;;10.66;100.00
58955;BME280;45815;52.334;5.024;2023-04-01T16:21:02;100372.47;;;10.54;100.00
58955;BME280;45815;52.334;5.024;2023-04-01T16:23:37;100383.00;;;10.57;100.00
58955;BME280;45815;52.334;5.024;2023-04-01T16:26:28;100392.53;;;10.49;100.00
58955;BME280;45815;52.334;5.024;2023-04-01T16:29:16;100387.25;;;10.47;100.00
58955;BME280;45815;52.334;5.024;2023-04-01T16:31:48;100391.59;;;10.42;100.00
58955;BME280;45815;52.334;5.024;2023-04-01T16:34:34;100401.13;;;10.37;100.00
58955;BME280;45815;52.334;5.024;2023-04-01T16:37:17;100416.09;;;10.44;100.00
58955;BME280;45815;52.334;5.024;2023-04-01T16:42:24;100424.69;;;10.34;100.00
58955;BME280;45815;52.334;5.024;2023-04-01T16:44:55;100427.28;;;10.31;100.00
58955;BME280;45815;52.334;5.024;2023-04-01T16:47:30;100440.31;;;10.26;100.00
58955;BME280;45815;52.334;5.024;2023-04-01T16:50:23;100443.66;;;10.18;100.00
58955;BME280;45815;52.334;5.024;2023-04-01T16:53:07;100451.56;;;10.19;100.00
58955;BME280;45815;52.334;5.024;2023-04-01T16:55:43;100458.53;;;10.17;100.00
58955;BME280;45815;52.334;5.024;2023-04-01T16:58:23;100467.31;;;10.19;100.00
58955;BME280;45815;52.334;5.024;2023-04-01T17:00:55;100471.63;;;10.14;100.00
58955;BME280;45815;52.334;5.024;2023-04-01T17:09:25;100492.19;;;9.89;100.00
58955;BME280;45815;52.334;5.024;2023-04-01T17:14:54;100504.47;;;9.90;100.00
58955;BME280;45815;52.334;5.024;2023-04-01T17:27:59;100536.59;;;9.79;100.00
58955;BME280;45815;52.334;5.024;2023-04-01T17:33:18;100546.91;;;9.69;100.00
58955;BME280;45815;52.334;5.024;2023-04-01T17:38:56;100565.13;;;9.63;100.00
58955;BME280;45815;52.334;5.024;2023-04-01T17:47:44;100592.13;;;9.58;100.00
58955;BME280;45815;52.334;5.024;2023-04-01T17:55:53;100601.69;;;9.56;100.00
58955;BME280;45815;52.334;5.024;2023-04-01T17:58:28;100601.78;;;9.60;100.00
58955;BME280;45815;52.334;5.024;2023-04-01T18:01:15;100604.31;;;9.56;100.00
58955;BME280;45815;52.334;5.024;2023-04-01T18:06:59;100635.78;;;9.59;100.00
58955;BME280;45815;52.334;5.024;2023-04-01T18:09:42;100634.00;;;9.56;100.00
58955;BME280;45815;52.334;5.024;2023-04-01T18:15:15;100651.34;;;9.49;100.00
58955;BME280;45815;52.334;5.024;2023-04-01T18:18:04;100653.94;;;9.49;100.00
58955;BME280;45815;52.334;5.024;2023-04-01T18:20:57;100655.53;;;9.41;100.00
58955;BME280;45815;52.334;5.024;2023-04-01T18:23:41;100672.09;;;9.40;100.00
58955;BME280;45815;52.334;5.024;2023-04-01T18:26:26;100671.81;;;9.26;100.00
58955;BME280;45815;52.334;5.024;2023-04-01T18:31:52;100694.69;;;9.35;100.00
58955;BME280;45815;52.334;5.024;2023-04-01T18:37:34;100709.34;;;9.27;100.00
58955;BME280;45815;52.334;5.024;2023-04-01T18:40:32;100711.84;;;9.21;100.00
58955;BME280;45815;52.334;5.024;2023-04-01T18:43:05;100723.31;;;9.26;100.00
58955;BME280;45815;52.334;5.024;2023-04-01T18:45:45;100725.78;;;9.20;100.00
58955;BME280;45815;52.334;5.024;2023-04-01T18:48:37;100732.59;;;9.12;100.00
58955;BME280;45815;52.334;5.024;2023-04-01T18:51:26;100740.22;;;9.02;100.00
58955;BME280;45815;52.334;5.024;2023-04-01T18:54:02;100737.78;;;9.10;100.00
58955;BME280;45815;52.334;5.024;2023-04-01T18:56:33;100744.81;;;9.11;100.00
58955;BME280;45815;52.334;5.024;2023-04-01T18:59:24;100756.81;;;9.03;100.00
58955;BME280;45815;52.334;5.024;2023-04-01T19:02:05;100749.00;;;9.04;100.00
58955;BME280;45815;52.334;5.024;2023-04-01T19:04:47;100771.69;;;9.04;100.00
58955;BME280;45815;52.334;5.024;2023-04-01T19:10:40;100782.81;;;8.95;100.00
58955;BME280;45815;52.334;5.024;2023-04-01T19:24:20;100812.41;;;8.93;100.00
58955;BME280;45815;52.334;5.024;2023-04-01T19:33:32;100842.03;;;8.90;100.00
58955;BME280;45815;52.334;5.024;2023-04-01T19:39:21;100852.38;;;8.87;100.00
58955;BME280;45815;52.334;5.024;2023-04-01T19:41:56;100853.19;;;8.83;100.00
58955;BME280;45815;52.334;5.024;2023-04-01T19:44:39;100866.03;;;8.75;100.00
58955;BME280;45815;52.334;5.024;2023-04-01T19:47:46;100863.09;;;8.63;100.00
58955;BME280;45815;52.334;5.024;2023-04-01T19:56:14;100879.41;;;8.54;100.00
58955;BME280;45815;52.334;5.024;2023-04-01T20:01:14;100897.88;;;8.59;100.00
58955;BME280;45815;52.334;5.024;2023-04-01T20:03:50;100886.47;;;8.57;100.00
58955;BME280;45815;52.334;5.024;2023-04-01T20:08:58;100909.84;;;8.51;100.00
58955;BME280;45815;52.334;5.024;2023-04-01T20:19:43;100924.00;;;8.29;100.00
58955;BME280;45815;52.334;5.024;2023-04-01T20:22:20;100933.75;;;8.34;100.00
58955;BME280;45815;52.334;5.024;2023-04-01T20:24:51;100941.75;;;8.39;100.00
58955;BME280;45815;52.334;5.024;2023-04-01T20:27:24;100956.44;;;8.35;100.00
58955;BME280;45815;52.334;5.024;2023-04-01T20:41:05;100984.78;;;8.21;100.00
58955;BME280;45815;52.334;5.024;2023-04-01T20:46:53;100991.72;;;8.19;100.00
58955;BME280;45815;52.334;5.024;2023-04-01T20:55:00;101025.59;;;8.16;100.00
58955;BME280;45815;52.334;5.024;2023-04-01T20:57:38;101017.59;;;8.10;100.00
58955;BME280;45815;52.334;5.024;2023-04-01T21:00:21;101019.28;;;8.10;100.00
58955;BME280;45815;52.334;5.024;2023-04-01T21:05:32;101039.13;;;8.03;100.00